sensor_id;sensor_type;location;lat;lon;timestamp;temperature;humidity
47114;DHT22;32867;51.556;6.832;2023-04-25T00:03:29;6.60;99.90
47114;DHT22;32867;51.556;6.832;2023-04-25T00:08:30;6.50;99.90
47114;DHT22;32867;51.556;6.832;2023-04-25T00:13:32;6.40;99.90
47114;DHT22;32867;51.556;6.832;2023-04-25T00:18:33;6.50;99.90
47114;DHT22;32867;51.556;6.832;2023-04-25T00:23:33;6.40;99.90
47114;DHT22;32867;51.556;6.832;2023-04-25T00:28:36;6.50;99.90
47114;DHT22;32867;51.556;6.832;2023-04-25T00:33:37;6.30;99.90
47114;DHT22;32867;51.556;6.832;2023-04-25T00:38:38;6.30;99.90
47114;DHT22;32867;51.556;6.832;2023-04-25T00:43:40;6.30;99.90
47114;DHT22;32867;51.556;6.832;2023-04-25T00:48:41;6.30;99.90
47114;DHT22;32867;51.556;6.832;2023-04-25T00:53:41;6.20;99.90
47114;DHT22;32867;51.556;6.832;2023-04-25T00:58:42;6.10;99.90
47114;DHT22;32867;51.556;6.832;2023-04-25T01:03:45;6.20;99.90
47114;DHT22;32867;51.556;6.832;2023-04-25T01:08:47;6.30;99.90
47114;DHT22;32867;51.556;6.832;2023-04-25T01:13:48;6.30;99.90
47114;DHT22;32867;51.556;6.832;2023-04-25T01:18:49;6.10;99.90
47114;DHT22;32867;51.556;6.832;2023-04-25T01:23:50;6.00;99.90
47114;DHT22;32867;51.556;6.832;2023-04-25T01:28:52;6.10;99.90
47114;DHT22;32867;51.556;6.832;2023-04-25T01:33:53;6.20;99.90
47114;DHT22;32867;51.556;6.832;2023-04-25T01:38:53;6.30;99.90
47114;DHT22;32867;51.556;6.832;2023-04-25T01:43:56;6.30;99.90
47114;DHT22;32867;51.556;6.832;2023-04-25T01:48:57;6.20;99.90
47114;DHT22;32867;51.556;6.832;2023-04-25T01:53:58;6.30;99.90
47114;DHT22;32867;51.556;6.832;2023-04-25T01:58:59;6.40;99.90
47114;DHT22;32867;51.556;6.832;2023-04-25T02:04:17;6.40;99.90
47114;DHT22;32867;51.556;6.832;2023-04-25T02:09:18;6.50;99.90
47114;DHT22;32867;51.556;6.832;2023-04-25T02:14:25;6.40;99.90
47114;DHT22;32867;51.556;6.832;2023-04-25T02:19:46;6.40;99.90
47114;DHT22;32867;51.556;6.832;2023-04-25T02:24:47;6.30;99.90
47114;DHT22;32867;51.556;6.832;2023-04-25T02:29:48;6.40;99.90
47114;DHT22;32867;51.556;6.832;2023-04-25T02:34:49;6.30;99.90
47114;DHT22;32867;51.556;6.832;2023-04-25T02:39:49;6.40;99.90
47114;DHT22;32867;51.556;6.832;2023-04-25T02:44:50;6.40;99.90
47114;DHT22;32867;51.556;6.832;2023-04-25T02:49:51;6.40;99.90
47114;DHT22;32867;51.556;6.832;2023-04-25T02:54:51;6.40;99.90
47114;DHT22;32867;51.556;6.832;2023-04-25T02:59:52;6.50;99.90
47114;DHT22;32867;51.556;6.832;2023-04-25T03:04:53;6.40;99.90
47114;DHT22;32867;51.556;6.832;2023-04-25T03:09:54;6.40;99.90
47114;DHT22;32867;51.556;6.832;2023-04-25T03:14:57;6.40;99.90
47114;DHT22;32867;51.556;6.832;2023-04-25T03:19:57;6.50;99.90
47114;DHT22;32867;51.556;6.832;2023-04-25T03:24:58;6.40;99.90
47114;DHT22;32867;51.556;6.832;2023-04-25T03:29:59;6.40;99.90
47114;DHT22;32867;51.556;6.832;2023-04-25T03:35:00;6.40;99.90
47114;DHT22;32867;51.556;6.832;2023-04-25T03:40:02;6.30;99.90
47114;DHT22;32867;51.556;6.832;2023-04-25T03:45:23;6.40;99.90
47114;DHT22;32867;51.556;6.832;2023-04-25T03:50:23;6.50;99.90
47114;DHT22;32867;51.556;6.832;2023-04-25T03:55:24;6.40;99.90
47114;DHT22;32867;51.556;6.832;2023-04-25T04:00:25;6.50;99.90
47114;DHT22;32867;51.556;6.832;2023-04-25T04:05:28;6.30;99.90
47114;DHT22;32867;51.556;6.832;2023-04-25T04:10:30;6.20;99.90
47114;DHT22;32867;51.556;6.832;2023-04-25T04:15:32;6.10;99.90
47114;DHT22;32867;51.556;6.832;2023-04-25T04:20:33;6.10;99.90
47114;DHT22;32867;51.556;6.832;2023-04-25T04:25:34;6.10;99.90
47114;DHT22;32867;51.556;6.832;2023-04-25T04:30:43;6.00;99.90
47114;DHT22;32867;51.556;6.832;2023-04-25T04:35:47;6.00;99.90
47114;DHT22;32867;51.556;6.832;2023-04-25T04:40:50;6.00;99.90
47114;DHT22;32867;51.556;6.832;2023-04-25T04:45:56;5.80;99.90
47114;DHT22;32867;51.556;6.832;2023-04-25T04:51:15;5.80;99.90
47114;DHT22;32867;51.556;6.832;2023-04-25T04:56:33;5.90;99.90
47114;DHT22;32867;51.556;6.832;2023-04-25T05:01:49;5.70;99.90
47114;DHT22;32867;51.556;6.832;2023-04-25T05:07:11;5.80;99.90
47114;DHT22;32867;51.556;6.832;2023-04-25T05:12:31;5.80;99.90
47114;DHT22;32867;51.556;6.832;2023-04-25T05:18:06;5.90;99.90
47114;DHT22;32867;51.556;6.832;2023-04-25T05:23:24;5.90;99.90
47114;DHT22;32867;51.556;6.832;2023-04-25T05:28:58;5.90;99.90
47114;DHT22;32867;51.556;6.832;2023-04-25T05:34:16;5.80;99.90
47114;DHT22;32867;51.556;6.832;2023-04-25T05:39:26;5.90;99.90
47114;DHT22;32867;51.556;6.832;2023-04-25T05:44:47;6.00;99.90
47114;DHT22;32867;51.556;6.832;2023-04-25T05:49:56;6.20;99.90
47114;DHT22;32867;51.556;6.832;2023-04-25T05:55:08;6.20;99.90
47114;DHT22;32867;51.556;6.832;2023-04-25T06:00:09;6.50;99.90
47114;DHT22;32867;51.556;6.832;2023-04-25T06:05:17;6.50;99.90
47114;DHT22;32867;51.556;6.832;2023-04-25T06:10:20;7.10;99.90
47114;DHT22;32867;51.556;6.832;2023-04-25T06:15:21;6.90;99.90
47114;DHT22;32867;51.556;6.832;2023-04-25T06:20:22;6.80;99.90
47114;DHT22;32867;51.556;6.832;2023-04-25T06:25:26;7.50;99.90
47114;DHT22;32867;51.556;6.832;2023-04-25T06:30:28;7.70;99.90
47114;DHT22;32867;51.556;6.832;2023-04-25T06:35:36;7.00;99.90
47114;DHT22;32867;51.556;6.832;2023-04-25T06:40:38;6.60;99.90
47114;DHT22;32867;51.556;6.832;2023-04-25T06:45:39;6.70;99.90
47114;DHT22;32867;51.556;6.832;2023-04-25T06:50:43;6.80;99.90
47114;DHT22;32867;51.556;6.832;2023-04-25T06:55:44;7.10;99.90
47114;DHT22;32867;51.556;6.832;2023-04-25T07:00:49;7.00;99.90
47114;DHT22;32867;51.556;6.832;2023-04-25T07:05:51;7.60;99.90
47114;DHT22;32867;51.556;6.832;2023-04-25T07:10:52;7.00;99.90
47114;DHT22;32867;51.556;6.832;2023-04-25T07:15:53;7.10;99.90
47114;DHT22;32867;51.556;6.832;2023-04-25T07:20:55;7.30;99.90
47114;DHT22;32867;51.556;6.832;2023-04-25T07:25:57;7.10;99.90
47114;DHT22;32867;51.556;6.832;2023-04-25T07:31:00;7.10;99.90
47114;DHT22;32867;51.556;6.832;2023-04-25T07:36:00;7.40;99.90
47114;DHT22;32867;51.556;6.832;2023-04-25T07:41:02;7.80;99.90
47114;DHT22;32867;51.556;6.832;2023-04-25T07:46:02;7.90;99.90
47114;DHT22;32867;51.556;6.832;2023-04-25T07:51:06;8.60;99.90
47114;DHT22;32867;51.556;6.832;2023-04-25T07:56:10;8.30;99.90
47114;DHT22;32867;51.556;6.832;2023-04-25T08:01:13;9.00;99.90
47114;DHT22;32867;51.556;6.832;2023-04-25T08:06:26;9.80;99.90
47114;DHT22;32867;51.556;6.832;2023-04-25T08:11:56;9.60;99.90
47114;DHT22;32867;51.556;6.832;2023-04-25T08:17:03;10.30;99.90
47114;DHT22;32867;51.556;6.832;2023-04-25T08:22:05;10.40;99.90
47114;DHT22;32867;51.556;6.832;2023-04-25T08:27:18;9.60;99.90
47114;DHT22;32867;51.556;6.832;2023-04-25T08:32:19;8.90;99.90
47114;DHT22;32867;51.556;6.832;2023-04-25T08:37:35;9.50;99.90
47114;DHT22;32867;51.556;6.832;2023-04-25T08:42:45;10.60;99.90
47114;DHT22;32867;51.556;6.832;2023-04-25T08:47:51;11.10;99.20
47114;DHT22;32867;51.556;6.832;2023-04-25T08:52:54;11.50;98.10
47114;DHT22;32867;51.556;6.832;2023-04-25T08:58:00;10.30;97.80
47114;DHT22;32867;51.556;6.832;2023-04-25T09:03:01;10.60;97.90
47114;DHT22;32867;51.556;6.832;2023-04-25T09:08:05;9.80;94.70
47114;DHT22;32867;51.556;6.832;2023-04-25T09:13:13;9.80;96.40
47114;DHT22;32867;51.556;6.832;2023-04-25T09:18:35;11.00;93.80
47114;DHT22;32867;51.556;6.832;2023-04-25T09:23:47;10.60;93.40
47114;DHT22;32867;51.556;6.832;2023-04-25T09:28:48;10.40;91.40
47114;DHT22;32867;51.556;6.832;2023-04-25T09:33:59;10.90;91.50
47114;DHT22;32867;51.556;6.832;2023-04-25T09:39:02;10.70;88.30
47114;DHT22;32867;51.556;6.832;2023-04-25T09:44:06;9.50;91.80
47114;DHT22;32867;51.556;6.832;2023-04-25T09:49:10;10.10;90.50
47114;DHT22;32867;51.556;6.832;2023-04-25T09:54:22;9.90;90.40
47114;DHT22;32867;51.556;6.832;2023-04-25T09:59:25;9.50;91.00
47114;DHT22;32867;51.556;6.832;2023-04-25T10:04:28;9.80;91.80
47114;DHT22;32867;51.556;6.832;2023-04-25T10:09:38;10.00;90.30
47114;DHT22;32867;51.556;6.832;2023-04-25T10:14:40;9.60;90.50
47114;DHT22;32867;51.556;6.832;2023-04-25T10:19:41;9.30;91.90
47114;DHT22;32867;51.556;6.832;2023-04-25T10:24:43;9.30;94.90
47114;DHT22;32867;51.556;6.832;2023-04-25T10:29:44;9.40;96.10
47114;DHT22;32867;51.556;6.832;2023-04-25T10:34:45;10.00;97.60
47114;DHT22;32867;51.556;6.832;2023-04-25T10:39:48;9.60;98.80
47114;DHT22;32867;51.556;6.832;2023-04-25T10:45:04;9.20;99.90
47114;DHT22;32867;51.556;6.832;2023-04-25T10:50:08;9.60;99.90
47114;DHT22;32867;51.556;6.832;2023-04-25T10:55:08;9.80;99.90
47114;DHT22;32867;51.556;6.832;2023-04-25T11:00:20;10.40;99.90
47114;DHT22;32867;51.556;6.832;2023-04-25T11:05:33;11.00;99.10
47114;DHT22;32867;51.556;6.832;2023-04-25T11:10:34;12.00;98.30
47114;DHT22;32867;51.556;6.832;2023-04-25T11:15:38;12.40;92.50
47114;DHT22;32867;51.556;6.832;2023-04-25T11:20:38;11.00;92.30
47114;DHT22;32867;51.556;6.832;2023-04-25T11:25:39;10.70;93.00
47114;DHT22;32867;51.556;6.832;2023-04-25T11:30:40;12.10;86.80
47114;DHT22;32867;51.556;6.832;2023-04-25T11:35:48;13.60;82.50
47114;DHT22;32867;51.556;6.832;2023-04-25T11:40:52;12.10;81.70
47114;DHT22;32867;51.556;6.832;2023-04-25T11:45:53;11.90;84.00
47114;DHT22;32867;51.556;6.832;2023-04-25T11:50:54;10.30;87.50
47114;DHT22;32867;51.556;6.832;2023-04-25T11:55:55;10.40;90.60
47114;DHT22;32867;51.556;6.832;2023-04-25T12:00:56;10.20;91.20
47114;DHT22;32867;51.556;6.832;2023-04-25T12:06:02;9.70;91.00
47114;DHT22;32867;51.556;6.832;2023-04-25T12:11:04;10.60;89.30
47114;DHT22;32867;51.556;6.832;2023-04-25T12:16:04;11.50;87.40
47114;DHT22;32867;51.556;6.832;2023-04-25T12:21:06;11.00;85.70
47114;DHT22;32867;51.556;6.832;2023-04-25T12:26:06;11.20;81.70
47114;DHT22;32867;51.556;6.832;2023-04-25T12:31:07;12.30;83.60
47114;DHT22;32867;51.556;6.832;2023-04-25T12:36:08;13.50;82.20
47114;DHT22;32867;51.556;6.832;2023-04-25T12:41:10;13.50;80.40
47114;DHT22;32867;51.556;6.832;2023-04-25T12:46:11;13.30;80.40
47114;DHT22;32867;51.556;6.832;2023-04-25T12:51:12;12.70;82.00
47114;DHT22;32867;51.556;6.832;2023-04-25T12:56:12;10.70;90.70
47114;DHT22;32867;51.556;6.832;2023-04-25T13:01:14;10.10;97.90
47114;DHT22;32867;51.556;6.832;2023-04-25T13:06:15;10.90;99.10
47114;DHT22;32867;51.556;6.832;2023-04-25T13:11:16;11.80;98.70
47114;DHT22;32867;51.556;6.832;2023-04-25T13:16:17;11.20;97.70
47114;DHT22;32867;51.556;6.832;2023-04-25T13:21:20;11.10;96.90
47114;DHT22;32867;51.556;6.832;2023-04-25T13:26:21;11.80;92.30
47114;DHT22;32867;51.556;6.832;2023-04-25T13:31:22;11.50;93.30
47114;DHT22;32867;51.556;6.832;2023-04-25T13:36:22;12.50;88.20
47114;DHT22;32867;51.556;6.832;2023-04-25T13:41:23;12.20;81.60
47114;DHT22;32867;51.556;6.832;2023-04-25T13:46:24;12.40;76.90
47114;DHT22;32867;51.556;6.832;2023-04-25T13:51:24;13.80;74.90
47114;DHT22;32867;51.556;6.832;2023-04-25T13:56:26;15.50;67.50
47114;DHT22;32867;51.556;6.832;2023-04-25T14:01:27;14.00;64.10
47114;DHT22;32867;51.556;6.832;2023-04-25T14:06:28;13.20;65.50
47114;DHT22;32867;51.556;6.832;2023-04-25T14:11:29;13.40;66.90
47114;DHT22;32867;51.556;6.832;2023-04-25T14:16:30;14.00;67.20
47114;DHT22;32867;51.556;6.832;2023-04-25T14:21:31;13.30;66.80
47114;DHT22;32867;51.556;6.832;2023-04-25T14:26:33;12.50;67.10
47114;DHT22;32867;51.556;6.832;2023-04-25T14:31:35;10.90;76.30
47114;DHT22;32867;51.556;6.832;2023-04-25T14:36:36;11.50;79.00
47114;DHT22;32867;51.556;6.832;2023-04-25T14:41:37;11.90;78.20
47114;DHT22;32867;51.556;6.832;2023-04-25T14:46:37;11.90;79.20
47114;DHT22;32867;51.556;6.832;2023-04-25T14:51:38;12.30;78.70
47114;DHT22;32867;51.556;6.832;2023-04-25T14:56:39;12.80;75.10
47114;DHT22;32867;51.556;6.832;2023-04-25T15:01:40;12.90;77.00
47114;DHT22;32867;51.556;6.832;2023-04-25T15:06:41;13.60;75.00
47114;DHT22;32867;51.556;6.832;2023-04-25T15:11:42;15.30;73.70
47114;DHT22;32867;51.556;6.832;2023-04-25T15:16:43;14.90;70.20
47114;DHT22;32867;51.556;6.832;2023-04-25T15:21:44;14.00;74.50
47114;DHT22;32867;51.556;6.832;2023-04-25T15:26:44;15.20;65.90
47114;DHT22;32867;51.556;6.832;2023-04-25T15:31:46;13.90;68.50
47114;DHT22;32867;51.556;6.832;2023-04-25T15:36:47;15.40;68.90
47114;DHT22;32867;51.556;6.832;2023-04-25T15:41:48;13.80;66.60
47114;DHT22;32867;51.556;6.832;2023-04-25T15:46:48;12.60;68.80
47114;DHT22;32867;51.556;6.832;2023-04-25T15:51:49;11.30;70.00
47114;DHT22;32867;51.556;6.832;2023-04-25T15:56:50;11.50;71.00
47114;DHT22;32867;51.556;6.832;2023-04-25T16:01:51;11.70;68.60
47114;DHT22;32867;51.556;6.832;2023-04-25T16:06:52;11.70;70.60
47114;DHT22;32867;51.556;6.832;2023-04-25T16:11:54;12.60;70.50
47114;DHT22;32867;51.556;6.832;2023-04-25T16:16:55;13.00;68.50
47114;DHT22;32867;51.556;6.832;2023-04-25T16:21:55;11.60;73.20
47114;DHT22;32867;51.556;6.832;2023-04-25T16:26:56;10.90;76.40
47114;DHT22;32867;51.556;6.832;2023-04-25T16:31:57;11.10;76.90
47114;DHT22;32867;51.556;6.832;2023-04-25T16:36:58;11.60;76.20
47114;DHT22;32867;51.556;6.832;2023-04-25T16:41:59;11.80;75.40
47114;DHT22;32867;51.556;6.832;2023-04-25T16:47:00;11.10;77.30
47114;DHT22;32867;51.556;6.832;2023-04-25T16:52:00;11.40;75.70
47114;DHT22;32867;51.556;6.832;2023-04-25T16:57:01;11.40;73.70
47114;DHT22;32867;51.556;6.832;2023-04-25T17:02:04;11.40;73.30
47114;DHT22;32867;51.556;6.832;2023-04-25T17:07:05;10.90;75.20
47114;DHT22;32867;51.556;6.832;2023-04-25T17:12:06;10.90;74.00
47114;DHT22;32867;51.556;6.832;2023-04-25T17:17:07;11.00;74.60
47114;DHT22;32867;51.556;6.832;2023-04-25T17:22:08;14.50;69.60
47114;DHT22;32867;51.556;6.832;2023-04-25T17:27:09;21.10;59.10
47114;DHT22;32867;51.556;6.832;2023-04-25T17:32:10;20.70;50.00
47114;DHT22;32867;51.556;6.832;2023-04-25T17:37:11;22.90;51.50
47114;DHT22;32867;51.556;6.832;2023-04-25T17:42:15;23.00;49.40
47114;DHT22;32867;51.556;6.832;2023-04-25T17:47:16;20.70;49.70
47114;DHT22;32867;51.556;6.832;2023-04-25T17:52:16;16.80;57.00
47114;DHT22;32867;51.556;6.832;2023-04-25T17:57:17;15.10;59.10
47114;DHT22;32867;51.556;6.832;2023-04-25T18:02:18;13.80;64.80
47114;DHT22;32867;51.556;6.832;2023-04-25T18:07:19;16.10;59.90
47114;DHT22;32867;51.556;6.832;2023-04-25T18:12:20;16.70;60.20
47114;DHT22;32867;51.556;6.832;2023-04-25T18:17:21;16.40;59.10
47114;DHT22;32867;51.556;6.832;2023-04-25T18:22:24;14.10;63.50
47114;DHT22;32867;51.556;6.832;2023-04-25T18:27:25;12.10;69.70
47114;DHT22;32867;51.556;6.832;2023-04-25T18:32:26;10.60;77.70
47114;DHT22;32867;51.556;6.832;2023-04-25T18:37:31;10.30;80.70
47114;DHT22;32867;51.556;6.832;2023-04-25T18:42:32;10.50;79.90
47114;DHT22;32867;51.556;6.832;2023-04-25T18:47:33;10.60;78.70
47114;DHT22;32867;51.556;6.832;2023-04-25T18:52:33;10.20;78.80
47114;DHT22;32867;51.556;6.832;2023-04-25T18:57:34;10.30;78.80
47114;DHT22;32867;51.556;6.832;2023-04-25T19:02:35;10.40;78.40
47114;DHT22;32867;51.556;6.832;2023-04-25T19:07:36;10.00;79.70
47114;DHT22;32867;51.556;6.832;2023-04-25T19:12:37;10.30;78.90
47114;DHT22;32867;51.556;6.832;2023-04-25T19:17:38;10.30;78.80
47114;DHT22;32867;51.556;6.832;2023-04-25T19:22:39;10.10;78.90
47114;DHT22;32867;51.556;6.832;2023-04-25T19:27:39;9.80;79.50
47114;DHT22;32867;51.556;6.832;2023-04-25T19:32:40;9.60;80.30
47114;DHT22;32867;51.556;6.832;2023-04-25T19:37:41;9.50;81.20
47114;DHT22;32867;51.556;6.832;2023-04-25T19:42:45;9.80;80.50
47114;DHT22;32867;51.556;6.832;2023-04-25T19:47:46;9.80;79.80
47114;DHT22;32867;51.556;6.832;2023-04-25T19:52:47;9.80;79.70
47114;DHT22;32867;51.556;6.832;2023-04-25T19:57:48;9.70;79.80
47114;DHT22;32867;51.556;6.832;2023-04-25T20:02:49;9.60;80.50
47114;DHT22;32867;51.556;6.832;2023-04-25T20:07:49;9.30;80.70
47114;DHT22;32867;51.556;6.832;2023-04-25T20:12:50;9.30;81.70
47114;DHT22;32867;51.556;6.832;2023-04-25T20:17:51;9.30;82.30
47114;DHT22;32867;51.556;6.832;2023-04-25T20:22:51;9.30;83.40
47114;DHT22;32867;51.556;6.832;2023-04-25T20:27:53;9.20;83.90
47114;DHT22;32867;51.556;6.832;2023-04-25T20:32:54;9.10;84.70
47114;DHT22;32867;51.556;6.832;2023-04-25T20:37:55;9.00;85.60
47114;DHT22;32867;51.556;6.832;2023-04-25T20:42:55;8.90;86.50
47114;DHT22;32867;51.556;6.832;2023-04-25T20:47:57;8.70;87.50
47114;DHT22;32867;51.556;6.832;2023-04-25T20:52:57;8.50;89.10
47114;DHT22;32867;51.556;6.832;2023-04-25T20:57:58;8.40;90.30
47114;DHT22;32867;51.556;6.832;2023-04-25T21:02:59;8.40;91.00
47114;DHT22;32867;51.556;6.832;2023-04-25T21:08:02;8.30;91.30
47114;DHT22;32867;51.556;6.832;2023-04-25T21:13:03;8.20;91.60
47114;DHT22;32867;51.556;6.832;2023-04-25T21:18:04;8.00;92.00
47114;DHT22;32867;51.556;6.832;2023-04-25T21:23:06;8.00;92.50
47114;DHT22;32867;51.556;6.832;2023-04-25T21:28:07;7.90;92.80
47114;DHT22;32867;51.556;6.832;2023-04-25T21:33:08;7.90;92.80
47114;DHT22;32867;51.556;6.832;2023-04-25T21:38:09;7.70;93.00
47114;DHT22;32867;51.556;6.832;2023-04-25T21:43:10;7.70;93.60
47114;DHT22;32867;51.556;6.832;2023-04-25T21:48:11;7.60;94.10
47114;DHT22;32867;51.556;6.832;2023-04-25T21:53:12;7.50;94.60
47114;DHT22;32867;51.556;6.832;2023-04-25T21:58:12;7.50;94.70
47114;DHT22;32867;51.556;6.832;2023-04-25T22:03:13;7.50;95.10
47114;DHT22;32867;51.556;6.832;2023-04-25T22:08:15;7.40;95.10
47114;DHT22;32867;51.556;6.832;2023-04-25T22:13:16;7.30;95.60
47114;DHT22;32867;51.556;6.832;2023-04-25T22:18:17;7.20;96.00
47114;DHT22;32867;51.556;6.832;2023-04-25T22:23:19;6.80;97.20
47114;DHT22;32867;51.556;6.832;2023-04-25T22:28:19;6.60;98.40
47114;DHT22;32867;51.556;6.832;2023-04-25T22:33:21;6.40;99.90
47114;DHT22;32867;51.556;6.832;2023-04-25T22:38:21;6.40;99.90
47114;DHT22;32867;51.556;6.832;2023-04-25T22:43:22;6.40;99.90
47114;DHT22;32867;51.556;6.832;2023-04-25T22:48:23;6.40;99.90
47114;DHT22;32867;51.556;6.832;2023-04-25T22:53:23;6.60;99.90
47114;DHT22;32867;51.556;6.832;2023-04-25T22:58:24;6.70;99.90
47114;DHT22;32867;51.556;6.832;2023-04-25T23:03:25;6.80;99.90
47114;DHT22;32867;51.556;6.832;2023-04-25T23:08:26;6.90;99.90
47114;DHT22;32867;51.556;6.832;2023-04-25T23:13:27;6.80;99.90
47114;DHT22;32867;51.556;6.832;2023-04-25T23:18:27;6.80;99.90
47114;DHT22;32867;51.556;6.832;2023-04-25T23:23:28;6.70;99.90
47114;DHT22;32867;51.556;6.832;2023-04-25T23:28:29;6.60;99.90
47114;DHT22;32867;51.556;6.832;2023-04-25T23:33:30;6.50;99.90
47114;DHT22;32867;51.556;6.832;2023-04-25T23:38:31;6.40;99.90
47114;DHT22;32867;51.556;6.832;2023-04-25T23:43:32;6.40;99.90
47114;DHT22;32867;51.556;6.832;2023-04-25T23:48:32;6.20;99.90
47114;DHT22;32867;51.556;6.832;2023-04-25T23:53:33;6.20;99.90
47114;DHT22;32867;51.556;6.832;2023-04-25T23:58:33;6.10;99.90
